Terminal Aerodrome Forecast
Issued by NWS

Home | Current Version | Previous Version | Text Only | Print | Product List | Glossary On
Versions: 1 2 3 4 5 6 7 8 9 10 11 12 13 14 15 16 17
000
FTAK31 PANC 240526
TAFAAQ
TAF
PAAQ 240526Z 2406/2506 VRB03KT P6SM SCT060 OVC120
     FM241000 VRB03KT P6SM VCSH SCT025 OVC040
     FM241400 VRB03KT 3SM -SN OVC020
     FM241600 VRB03KT 1 1/2SM -SN SCT008 OVC015
     FM250000 VRB03KT 3SM -SHSN OVC025
     FM250300 VRB03KT P6SM SCT030 BKN060=

USA.gov is the U.S. government's official web portal to all federal, state and local government web resources and services.